createdAt,value
2023-05-14T05:00:55.415Z,84.43
2023-05-14T05:01:55.268Z,84.43
2023-05-14T05:02:55.308Z,84.12
2023-05-14T05:03:55.307Z,83.42
2023-05-14T05:04:55.253Z,84.29
2023-05-14T05:05:55.227Z,84.03
2023-05-14T05:06:55.222Z,84.19
2023-05-14T05:07:55.236Z,83.17
2023-05-14T05:08:55.220Z,83.48
2023-05-14T05:09:55.193Z,83.72
2023-05-14T05:10:55.185Z,83.42
2023-05-14T05:12:00.179Z,83.48
2023-05-14T05:12:55.144Z,83.58
2023-05-14T05:13:55.145Z,83.37
2023-05-14T05:14:55.123Z,83.58
2023-05-14T05:15:55.157Z,83.48
2023-05-14T05:16:55.195Z,82.66
2023-05-14T05:17:55.112Z,83.07
2023-05-14T05:18:55.122Z,83.27
2023-05-14T05:19:55.071Z,83.17
2023-05-14T05:20:55.061Z,82.97
2023-05-14T05:21:55.070Z,83.07
2023-05-14T05:23:00.056Z,82.87
2023-05-14T05:23:55.034Z,83.27
2023-05-14T05:24:55.011Z,83.27
2023-05-14T05:25:55.002Z,82.56
2023-05-14T05:26:54.991Z,82.66
2023-05-14T05:27:54.997Z,82.62
2023-05-14T05:28:54.988Z,82.76
2023-05-14T05:29:54.959Z,82.66
2023-05-14T05:30:55.003Z,82.15
2023-05-14T05:31:55.000Z,82.66
2023-05-14T05:32:54.961Z,82.21
2023-05-14T05:33:59.972Z,82.73
2023-05-14T05:34:54.917Z,82.56
2023-05-14T05:35:54.897Z,82.26
2023-05-14T05:36:54.879Z,81.91
2023-05-14T05:37:54.900Z,82.32
2023-05-14T05:38:54.858Z,82.26
2023-05-14T05:39:54.858Z,82.12
2023-05-14T05:40:54.841Z,82.32
2023-05-14T05:41:54.825Z,82.42
2023-05-14T05:42:54.819Z,82.32
2023-05-14T05:43:54.800Z,82.56
2023-05-14T05:44:59.810Z,82.52
2023-05-14T05:45:54.794Z,82.93
2023-05-14T05:46:54.913Z,82.82
2023-05-14T05:47:54.865Z,81.60
2023-05-14T05:48:54.768Z,81.60
2023-05-14T05:49:54.729Z,82.42
2023-05-14T05:50:54.717Z,81.91
2023-05-14T05:51:54.738Z,81.95
2023-05-14T05:52:54.697Z,81.81
2023-05-14T05:53:54.687Z,83.03
2023-05-14T05:54:54.692Z,82.32
2023-05-14T05:55:59.725Z,82.12
2023-05-14T05:56:54.674Z,82.21
2023-05-14T05:57:54.671Z,82.52
2023-05-14T05:58:54.632Z,81.71
2023-05-14T05:59:54.624Z,82.73
2023-05-14T06:00:54.668Z,81.71
2023-05-14T06:01:54.648Z,81.71
2023-05-14T06:02:54.605Z,81.71
2023-05-14T06:03:54.585Z,81.81
2023-05-14T06:04:54.733Z,81.81
2023-05-14T06:05:54.563Z,82.12
2023-05-14T06:06:59.564Z,82.01
2023-05-14T06:07:54.535Z,81.87
2023-05-14T06:08:54.516Z,81.87
2023-05-14T06:09:54.519Z,81.87
2023-05-14T06:10:54.527Z,81.37
2023-05-14T06:11:54.505Z,81.37
2023-05-14T06:12:54.478Z,80.96
2023-05-14T06:13:54.464Z,80.51
2023-05-14T06:14:54.449Z,79.90
2023-05-14T06:15:54.461Z,80.35
2023-05-14T06:16:54.486Z,80.45
2023-05-14T06:17:59.499Z,80.21
2023-05-14T06:18:54.423Z,80.15
2023-05-14T06:19:54.408Z,80.24
2023-05-14T06:20:54.468Z,79.84
2023-05-14T06:21:54.396Z,79.60
2023-05-14T06:22:54.362Z,79.39
2023-05-14T06:23:54.352Z,79.80
2023-05-14T06:24:54.350Z,79.39
2023-05-14T06:25:54.330Z,79.80
2023-05-14T06:26:54.329Z,80.17
2023-05-14T06:27:54.332Z,79.70
2023-05-14T06:28:59.323Z,80.00
2023-05-14T06:29:54.293Z,80.11
2023-05-14T06:30:54.268Z,80.31
2023-05-14T06:31:54.335Z,80.21
2023-05-14T06:32:54.344Z,80.21
2023-05-14T06:33:54.266Z,80.21
2023-05-14T06:34:54.240Z,79.86
2023-05-14T06:35:54.218Z,80.37
2023-05-14T06:36:54.227Z,80.37
2023-05-14T06:37:54.244Z,80.17
2023-05-14T06:38:54.195Z,80.17
2023-05-14T06:39:59.265Z,79.97
2023-05-14T06:40:54.161Z,79.36
2023-05-14T06:41:54.155Z,79.25
2023-05-14T06:42:54.145Z,79.56
2023-05-14T06:43:54.142Z,79.72
2023-05-14T06:44:54.118Z,78.81
2023-05-14T06:45:54.179Z,79.02
2023-05-14T06:46:54.097Z,78.51
2023-05-14T06:47:54.222Z,78.61
2023-05-14T06:48:54.106Z,79.02
2023-05-14T06:49:54.061Z,78.27
2023-05-14T06:50:59.071Z,78.27
2023-05-14T06:51:54.054Z,77.66
2023-05-14T06:52:54.055Z,77.56
2023-05-14T06:53:54.038Z,77.56
2023-05-14T06:54:54.004Z,77.59
2023-05-14T06:55:53.997Z,78.47
2023-05-14T06:56:53.984Z,77.97
2023-05-14T06:57:53.992Z,77.66
2023-05-14T06:58:53.982Z,77.15
2023-05-14T06:59:53.949Z,76.91
2023-05-14T07:00:53.959Z,76.61
2023-05-14T07:01:58.998Z,76.37
2023-05-14T07:02:53.988Z,76.06
2023-05-14T07:03:53.961Z,75.46
2023-05-14T07:04:53.898Z,75.52
2023-05-14T07:05:53.886Z,75.52
2023-05-14T07:06:53.873Z,75.79
2023-05-14T07:07:53.878Z,74.98
2023-05-14T07:08:53.874Z,74.98
2023-05-14T07:09:53.858Z,74.57
2023-05-14T07:10:53.850Z,73.76
2023-05-14T07:11:53.814Z,73.12
2023-05-14T07:12:58.865Z,71.80
2023-05-14T07:13:53.793Z,71.47
2023-05-14T07:14:53.813Z,70.09
2023-05-14T07:15:53.786Z,68.00
2023-05-14T07:16:53.819Z,67.39
2023-05-14T07:17:53.788Z,66.99
2023-05-14T07:18:53.824Z,67.09
2023-05-14T07:19:53.728Z,67.69
2023-05-14T07:20:53.726Z,68.43
2023-05-14T07:21:53.725Z,68.23
2023-05-14T07:22:53.692Z,68.03
2023-05-14T07:23:58.736Z,68.13
2023-05-14T07:24:53.680Z,68.23
2023-05-14T07:25:53.660Z,67.32
2023-05-14T07:26:53.656Z,67.32
2023-05-14T07:27:53.658Z,67.63
2023-05-14T07:28:53.625Z,67.39
2023-05-14T07:29:53.614Z,67.63
2023-05-14T07:30:53.683Z,67.72
2023-05-14T07:31:53.657Z,67.93
2023-05-14T07:32:53.618Z,68.03
2023-05-14T07:33:53.568Z,68.03
2023-05-14T07:34:58.606Z,68.33
2023-05-14T07:35:53.559Z,68.00
2023-05-14T07:36:53.538Z,68.54
2023-05-14T07:37:53.529Z,68.20
2023-05-14T07:38:53.522Z,67.80
2023-05-14T07:39:53.527Z,67.29
2023-05-14T07:40:53.514Z,67.69
2023-05-14T07:41:53.479Z,67.39
2023-05-14T07:42:53.479Z,67.39
2023-05-14T07:43:53.463Z,67.60
2023-05-14T07:44:53.448Z,68.10
2023-05-14T07:45:58.473Z,68.71
2023-05-14T07:46:53.455Z,68.30
2023-05-14T07:47:53.490Z,68.10
2023-05-14T07:48:53.407Z,67.90
2023-05-14T07:49:53.402Z,67.76
2023-05-14T07:50:53.393Z,67.63
2023-05-14T07:51:53.371Z,67.06
2023-05-14T07:52:53.366Z,67.43
2023-05-14T07:53:53.344Z,67.46
2023-05-14T07:54:53.336Z,67.06
2023-05-14T07:55:53.352Z,67.86
2023-05-14T07:56:58.336Z,68.17
2023-05-14T07:57:53.311Z,67.86
2023-05-14T07:58:53.302Z,67.26
2023-05-14T07:59:53.286Z,67.60
2023-05-14T08:00:53.288Z,67.90
2023-05-14T08:01:53.286Z,68.71
2023-05-14T08:02:53.339Z,69.21
2023-05-14T08:03:53.300Z,68.77
2023-05-14T08:04:53.226Z,68.17
2023-05-14T08:05:53.219Z,67.97
2023-05-14T08:06:53.194Z,68.27
2023-05-14T08:07:58.225Z,68.47
2023-05-14T08:08:53.174Z,68.04
2023-05-14T08:09:53.187Z,67.93
2023-05-14T08:10:53.290Z,68.44
2023-05-14T08:11:53.165Z,68.21
2023-05-14T08:12:53.132Z,67.50
2023-05-14T08:13:53.125Z,66.36
2023-05-14T08:14:53.157Z,66.36
2023-05-14T08:15:53.103Z,66.46
2023-05-14T08:16:53.130Z,65.42
2023-05-14T08:17:53.152Z,65.99
2023-05-14T08:18:58.125Z,65.29
2023-05-14T08:19:53.077Z,64.81
2023-05-14T08:20:53.046Z,65.52
2023-05-14T08:21:53.046Z,65.82
2023-05-14T08:22:53.040Z,66.02
2023-05-14T08:23:53.014Z,65.62
2023-05-14T08:24:53.011Z,64.81
2023-05-14T08:25:52.997Z,65.82
2023-05-14T08:26:52.993Z,64.81
2023-05-14T08:27:52.994Z,64.44
2023-05-14T08:28:52.975Z,65.35
2023-05-14T08:29:57.985Z,65.75
2023-05-14T08:30:52.981Z,66.08
2023-05-14T08:31:52.932Z,65.95
2023-05-14T08:32:52.973Z,65.99
2023-05-14T08:33:52.915Z,65.85
2023-05-14T08:34:52.926Z,66.25
2023-05-14T08:35:52.894Z,65.78
2023-05-14T08:36:52.875Z,65.75
2023-05-14T08:37:52.865Z,64.64
2023-05-14T08:38:52.867Z,64.44
2023-05-14T08:39:52.842Z,64.64
2023-05-14T08:40:57.872Z,65.15
2023-05-14T08:41:52.821Z,64.41
2023-05-14T08:42:52.809Z,64.41
2023-05-14T08:43:52.824Z,64.51
2023-05-14T08:44:52.787Z,64.72
2023-05-14T08:45:52.772Z,65.32
2023-05-14T08:46:52.774Z,65.19
2023-05-14T08:47:52.931Z,64.72
2023-05-14T08:48:52.770Z,65.22
2023-05-14T08:49:52.726Z,65.22
2023-05-14T08:50:52.720Z,66.02
2023-05-14T08:51:57.745Z,65.62
2023-05-14T08:52:52.700Z,65.72
2023-05-14T08:53:52.694Z,66.33
2023-05-14T08:54:52.712Z,65.92
2023-05-14T08:55:52.657Z,65.92
2023-05-14T08:56:52.652Z,66.02
2023-05-14T08:57:52.662Z,65.85
2023-05-14T08:58:52.625Z,66.16
2023-05-14T08:59:52.633Z,64.84
2023-05-14T09:00:52.632Z,65.78
2023-05-14T09:01:52.612Z,66.19
2023-05-14T09:02:57.700Z,66.19
2023-05-14T09:03:52.623Z,66.08
2023-05-14T09:04:52.559Z,66.29
2023-05-14T09:05:52.572Z,65.99
2023-05-14T09:06:52.577Z,65.99
2023-05-14T09:07:52.531Z,64.84
2023-05-14T09:08:52.519Z,65.99
2023-05-14T09:09:52.500Z,65.78
2023-05-14T09:10:52.499Z,65.88
2023-05-14T09:11:52.578Z,66.82
2023-05-14T09:12:52.479Z,67.13
2023-05-14T09:13:57.491Z,66.99
2023-05-14T09:14:52.475Z,66.99
2023-05-14T09:15:52.501Z,67.10
2023-05-14T09:16:52.567Z,67.19
2023-05-14T09:17:52.477Z,66.89
2023-05-14T09:18:52.474Z,67.60
2023-05-14T09:19:52.412Z,67.10
2023-05-14T09:20:52.389Z,66.82
2023-05-14T09:21:52.363Z,67.33
2023-05-14T09:22:52.377Z,67.70
2023-05-14T09:23:52.341Z,66.89
2023-05-14T09:24:57.355Z,67.27
2023-05-14T09:25:52.359Z,66.02
2023-05-14T09:26:52.313Z,64.72
2023-05-14T09:27:52.297Z,64.72
2023-05-14T09:28:52.289Z,64.92
2023-05-14T09:29:52.281Z,64.31
2023-05-14T09:30:52.277Z,64.11
2023-05-14T09:31:52.352Z,64.51
2023-05-14T09:32:52.321Z,64.51
2023-05-14T09:33:52.231Z,64.01
2023-05-14T09:34:52.230Z,63.90
2023-05-14T09:35:58.431Z,63.40
2023-05-14T09:36:52.197Z,63.81
2023-05-14T09:37:52.212Z,64.14
2023-05-14T09:38:52.180Z,63.90
2023-05-14T09:39:52.171Z,63.50
2023-05-14T09:40:52.161Z,63.40
2023-05-14T09:41:52.138Z,63.90
2023-05-14T09:42:52.128Z,63.90
2023-05-14T09:43:52.126Z,64.04
2023-05-14T09:44:52.133Z,64.24
2023-05-14T09:45:52.098Z,63.90
2023-05-14T09:46:57.135Z,64.04
2023-05-14T09:47:52.233Z,63.37
2023-05-14T09:48:52.071Z,63.17
2023-05-14T09:49:52.059Z,63.27
2023-05-14T09:50:52.046Z,62.94
2023-05-14T09:51:52.028Z,61.23
2023-05-14T09:52:52.018Z,61.23
2023-05-14T09:53:52.057Z,60.32
2023-05-14T09:54:52.010Z,60.22
2023-05-14T09:55:51.988Z,60.83
2023-05-14T09:56:53.343Z,60.42
2023-05-14T09:57:56.980Z,59.11
2023-05-14T09:58:51.959Z,60.29
2023-05-14T09:59:51.950Z,59.99
2023-05-14T10:00:51.978Z,59.36
2023-05-14T10:01:51.920Z,59.83
2023-05-14T10:02:51.961Z,59.33
2023-05-14T10:03:51.933Z,58.40
2023-05-14T10:04:51.940Z,58.70
2023-05-14T10:05:51.872Z,57.97
2023-05-14T10:06:51.863Z,58.07
2023-05-14T10:07:51.858Z,58.17
2023-05-14T10:08:56.909Z,57.87
2023-05-14T10:09:51.825Z,57.97
2023-05-14T10:10:51.815Z,58.50
2023-05-14T10:11:51.806Z,58.27
2023-05-14T10:12:51.803Z,58.07
2023-05-14T10:13:51.781Z,57.97
2023-05-14T10:14:51.784Z,58.57
2023-05-14T10:15:51.764Z,57.70
2023-05-14T10:16:51.796Z,57.70
2023-05-14T10:17:51.807Z,58.29
2023-05-14T10:18:51.815Z,58.40
2023-05-14T10:19:56.739Z,58.90
2023-05-14T10:20:51.725Z,59.00
2023-05-14T10:21:51.699Z,58.80
2023-05-14T10:22:51.696Z,58.33
2023-05-14T10:23:51.672Z,58.93
2023-05-14T10:24:51.661Z,59.13
2023-05-14T10:25:51.649Z,59.23
2023-05-14T10:26:51.670Z,59.33
2023-05-14T10:27:51.628Z,58.15
2023-05-14T10:28:51.614Z,59.26
2023-05-14T10:29:51.609Z,59.26
2023-05-14T10:30:56.622Z,60.06
2023-05-14T10:31:51.617Z,60.06
2023-05-14T10:32:51.627Z,60.06
2023-05-14T10:33:51.556Z,59.28
2023-05-14T10:34:51.572Z,60.19
2023-05-14T10:35:51.543Z,60.42
2023-05-14T10:36:51.537Z,60.72
2023-05-14T10:37:51.515Z,61.03
2023-05-14T10:38:51.517Z,60.83
2023-05-14T10:39:51.504Z,60.83
2023-05-14T10:40:54.086Z,60.02
2023-05-14T10:41:56.504Z,59.14
2023-05-14T10:42:51.458Z,60.12
2023-05-14T10:43:51.448Z,59.52
2023-05-14T10:44:51.439Z,59.11
2023-05-14T10:45:51.455Z,59.34
2023-05-14T10:46:51.450Z,58.94
2023-05-14T10:47:51.433Z,59.34
2023-05-14T10:48:51.422Z,59.95
2023-05-14T10:49:51.377Z,59.77
2023-05-14T10:50:51.436Z,60.17
2023-05-14T10:51:51.376Z,59.77
2023-05-14T10:52:56.371Z,60.38
2023-05-14T10:53:51.341Z,59.07
2023-05-14T10:54:51.336Z,58.97
2023-05-14T10:55:51.325Z,58.67
2023-05-14T10:56:51.308Z,59.30
2023-05-14T10:57:51.307Z,60.08
2023-05-14T10:58:51.279Z,59.97
2023-05-14T10:59:51.277Z,59.97
2023-05-14T11:00:51.265Z,60.48
2023-05-14T11:01:51.300Z,60.51
2023-05-14T11:02:51.264Z,60.98
2023-05-14T11:03:56.306Z,61.52
2023-05-14T11:04:51.225Z,61.52
2023-05-14T11:05:51.210Z,61.32
2023-05-14T11:06:51.224Z,62.52
2023-05-14T11:07:51.183Z,62.55
2023-05-14T11:08:51.168Z,62.43
2023-05-14T11:09:51.173Z,62.52
2023-05-14T11:10:51.146Z,62.63
2023-05-14T11:11:51.134Z,62.93
2023-05-14T11:12:51.124Z,62.52
2023-05-14T11:13:51.122Z,62.83
2023-05-14T11:14:56.134Z,62.83
2023-05-14T11:15:51.100Z,62.63
2023-05-14T11:16:51.140Z,62.22
2023-05-14T11:17:51.109Z,63.03
2023-05-14T11:18:51.084Z,62.63
2023-05-14T11:19:51.225Z,62.12
2023-05-14T11:20:51.034Z,62.73
2023-05-14T11:21:51.039Z,61.82
2023-05-14T11:22:51.032Z,61.18
2023-05-14T11:23:51.021Z,61.01
2023-05-14T11:24:51.014Z,61.41
2023-05-14T11:25:56.032Z,61.29
2023-05-14T11:26:50.967Z,62.09
2023-05-14T11:27:50.985Z,61.79
2023-05-14T11:28:50.966Z,61.99
2023-05-14T11:29:50.935Z,60.81
2023-05-14T11:30:50.927Z,60.48
2023-05-14T11:31:50.964Z,60.68
2023-05-14T11:32:50.989Z,60.48
2023-05-14T11:33:50.911Z,59.97
2023-05-14T11:34:50.878Z,59.77
2023-05-14T11:35:50.862Z,60.68
2023-05-14T11:36:55.877Z,60.68
2023-05-14T11:37:50.860Z,60.68
2023-05-14T11:38:50.853Z,60.78
2023-05-14T11:39:50.874Z,60.68
2023-05-14T11:40:50.809Z,60.55
2023-05-14T11:41:50.800Z,59.95
2023-05-14T11:42:50.803Z,59.75
2023-05-14T11:43:50.778Z,59.34
2023-05-14T11:44:50.764Z,59.44
2023-05-14T11:45:50.779Z,58.54
2023-05-14T11:46:50.753Z,59.31
2023-05-14T11:47:55.762Z,59.04
2023-05-14T11:48:50.739Z,59.34
2023-05-14T11:49:50.707Z,59.24
2023-05-14T11:50:50.699Z,59.52
2023-05-14T11:51:50.723Z,59.64
2023-05-14T11:52:50.774Z,59.92
2023-05-14T11:53:50.667Z,60.02
2023-05-14T11:54:50.685Z,59.01
2023-05-14T11:55:50.643Z,59.92
2023-05-14T11:56:50.640Z,59.52
2023-05-14T11:57:50.631Z,58.81
2023-05-14T11:58:55.629Z,59.69
2023-05-14T11:59:50.593Z,59.62
2023-05-14T12:00:50.587Z,58.98
2023-05-14T12:01:50.849Z,59.08
2023-05-14T12:02:50.763Z,59.59
2023-05-14T12:03:50.633Z,59.28
2023-05-14T12:04:50.625Z,59.28
2023-05-14T12:05:50.545Z,58.28
2023-05-14T12:06:50.530Z,59.28
2023-05-14T12:07:50.519Z,59.19
2023-05-14T12:08:50.503Z,57.28
2023-05-14T12:09:55.526Z,58.86
2023-05-14T12:10:50.485Z,58.18
2023-05-14T12:11:50.459Z,58.07
2023-05-14T12:12:50.449Z,58.18
2023-05-14T12:13:50.438Z,58.95
2023-05-14T12:14:50.538Z,58.65
2023-05-14T12:15:50.485Z,58.42
2023-05-14T12:16:50.421Z,58.42
2023-05-14T12:17:50.429Z,58.42
2023-05-14T12:18:50.448Z,58.12
2023-05-14T12:19:50.394Z,58.83
2023-05-14T12:20:55.414Z,58.53
2023-05-14T12:21:50.372Z,58.12
2023-05-14T12:22:50.345Z,59.23
2023-05-14T12:23:50.321Z,59.03
2023-05-14T12:24:50.332Z,59.13
2023-05-14T12:25:50.317Z,59.03
2023-05-14T12:26:50.296Z,58.29
2023-05-14T12:27:50.304Z,57.59
2023-05-14T12:28:50.290Z,56.76
2023-05-14T12:29:50.268Z,56.93
2023-05-14T12:30:50.250Z,55.93
2023-05-14T12:31:55.336Z,55.71
2023-05-14T12:32:50.275Z,55.00
2023-05-14T12:33:50.243Z,55.00
2023-05-14T12:34:50.227Z,54.60
2023-05-14T12:35:50.246Z,54.60
2023-05-14T12:36:50.182Z,55.30
2023-05-14T12:37:50.180Z,55.30
2023-05-14T12:38:50.167Z,55.58
2023-05-14T12:39:50.173Z,55.60
2023-05-14T12:40:50.142Z,55.60
2023-05-14T12:41:50.220Z,56.10
2023-05-14T12:42:56.803Z,56.30
2023-05-14T12:43:50.114Z,55.91
2023-05-14T12:44:50.098Z,56.28
2023-05-14T12:45:50.103Z,55.47
2023-05-14T12:46:50.134Z,55.78
2023-05-14T12:47:50.096Z,55.08
2023-05-14T12:48:51.760Z,54.50
2023-05-14T12:49:50.040Z,56.01
2023-05-14T12:50:50.032Z,55.43
2023-05-14T12:51:54.505Z,55.83
2023-05-14T12:52:50.031Z,55.53
2023-05-14T12:53:55.031Z,56.13
2023-05-14T12:54:49.984Z,56.34
2023-05-14T12:55:49.977Z,55.93
2023-05-14T12:56:49.962Z,56.03
2023-05-14T12:57:49.990Z,55.13
2023-05-14T12:58:49.968Z,55.66
2023-05-14T12:59:49.930Z,56.23
2023-05-14T13:00:49.940Z,56.34
2023-05-14T13:01:49.908Z,55.93
2023-05-14T13:02:49.942Z,55.73
2023-05-14T13:03:49.931Z,55.51
2023-05-14T13:04:54.909Z,55.53
2023-05-14T13:05:49.858Z,55.30
2023-05-14T13:06:49.851Z,55.60
2023-05-14T13:07:49.845Z,55.10
2023-05-14T13:08:49.827Z,56.36
2023-05-14T13:09:49.815Z,56.36
2023-05-14T13:10:49.837Z,55.66
2023-05-14T13:11:49.802Z,55.96
2023-05-14T13:12:49.790Z,56.26
2023-05-14T13:13:49.794Z,56.26
2023-05-14T13:14:49.768Z,56.36
2023-05-14T13:15:54.769Z,56.63
2023-05-14T13:16:49.840Z,55.53
2023-05-14T13:17:49.785Z,55.23
2023-05-14T13:18:49.764Z,55.10
2023-05-14T13:19:49.702Z,54.90
2023-05-14T13:20:49.702Z,55.30
2023-05-14T13:21:49.691Z,54.90
2023-05-14T13:22:49.675Z,55.23
2023-05-14T13:23:49.675Z,55.13
2023-05-14T13:24:49.661Z,55.53
2023-05-14T13:25:50.079Z,55.30
2023-05-14T13:26:54.661Z,54.90
2023-05-14T13:27:49.617Z,55.03
2023-05-14T13:28:49.605Z,55.03
2023-05-14T13:29:49.621Z,55.93
2023-05-14T13:30:49.646Z,55.13
2023-05-14T13:31:49.580Z,55.30
2023-05-14T13:32:49.680Z,55.00
2023-05-14T13:33:49.549Z,54.93
2023-05-14T13:34:49.541Z,54.72
2023-05-14T13:35:49.552Z,55.23
2023-05-14T13:36:49.514Z,55.23
2023-05-14T13:37:54.559Z,55.23
2023-05-14T13:38:49.494Z,55.23
2023-05-14T13:39:51.239Z,54.70
2023-05-14T13:40:49.485Z,54.90
2023-05-14T13:41:49.468Z,54.00
2023-05-14T13:42:49.450Z,54.10
2023-05-14T13:43:49.439Z,54.10
2023-05-14T13:44:49.425Z,54.00
2023-05-14T13:45:49.447Z,54.00
2023-05-14T13:46:49.500Z,54.10
2023-05-14T13:47:50.829Z,54.50
2023-05-14T13:48:54.427Z,54.20
2023-05-14T13:49:49.392Z,53.87
2023-05-14T13:50:49.371Z,53.97
2023-05-14T13:51:49.351Z,54.90
2023-05-14T13:52:49.343Z,54.10
2023-05-14T13:53:49.334Z,54.30
2023-05-14T13:54:49.335Z,53.97
2023-05-14T13:55:49.503Z,54.40
2023-05-14T13:56:49.304Z,54.07
2023-05-14T13:57:49.288Z,54.38
2023-05-14T13:58:49.295Z,54.68
2023-05-14T13:59:54.301Z,55.20
2023-05-14T14:00:49.269Z,54.60
2023-05-14T14:01:49.274Z,54.10
2023-05-14T14:02:49.238Z,55.53
2023-05-14T14:03:49.218Z,54.20
2023-05-14T14:04:49.276Z,55.13
2023-05-14T14:05:49.197Z,54.93
2023-05-14T14:06:49.234Z,55.93
2023-05-14T14:07:50.445Z,56.13
2023-05-14T14:08:49.173Z,56.03
2023-05-14T14:09:49.161Z,55.43
2023-05-14T14:10:54.172Z,56.03
2023-05-14T14:11:49.144Z,56.13
2023-05-14T14:12:49.120Z,56.16
2023-05-14T14:13:49.137Z,55.76
2023-05-14T14:14:49.099Z,55.96
2023-05-14T14:15:49.165Z,56.16
2023-05-14T14:16:49.072Z,56.16
2023-05-14T14:17:49.119Z,56.26
2023-05-14T14:18:49.089Z,55.96
2023-05-14T14:19:49.086Z,55.05
2023-05-14T14:20:49.026Z,55.33
2023-05-14T14:21:54.060Z,55.33
2023-05-14T14:22:49.017Z,55.43
2023-05-14T14:23:49.084Z,56.03
2023-05-14T14:24:48.987Z,55.83
2023-05-14T14:25:48.987Z,55.80
2023-05-14T14:26:48.961Z,55.00
2023-05-14T14:27:49.311Z,54.97
2023-05-14T14:28:48.940Z,54.97
2023-05-14T14:29:48.930Z,54.58
2023-05-14T14:30:49.017Z,54.95
2023-05-14T14:31:48.958Z,54.07
2023-05-14T14:32:54.041Z,54.47
2023-05-14T14:33:48.887Z,53.97
2023-05-14T14:34:48.875Z,54.35
2023-05-14T14:35:48.948Z,54.77
2023-05-14T14:36:48.856Z,54.58
2023-05-14T14:37:48.878Z,55.18
2023-05-14T14:38:48.832Z,54.77
2023-05-14T14:39:48.823Z,54.77
2023-05-14T14:40:48.813Z,54.40
2023-05-14T14:41:48.857Z,54.50
2023-05-14T14:42:48.812Z,55.20
2023-05-14T14:43:53.806Z,54.43
2023-05-14T14:44:48.762Z,54.22
2023-05-14T14:45:49.178Z,54.33
2023-05-14T14:46:48.753Z,54.45
2023-05-14T14:47:48.839Z,54.25
2023-05-14T14:48:48.746Z,55.35
2023-05-14T14:49:48.718Z,55.05
2023-05-14T14:50:48.699Z,54.96
2023-05-14T14:51:48.736Z,55.35
2023-05-14T14:52:48.675Z,55.55
2023-05-14T14:53:48.701Z,55.33
2023-05-14T14:54:53.674Z,55.03
2023-05-14T14:55:48.648Z,54.33
2023-05-14T14:56:48.648Z,54.83
2023-05-14T14:57:48.622Z,53.22
2023-05-14T14:58:48.607Z,53.42
2023-05-14T14:59:48.623Z,53.82
2023-05-14T15:00:48.639Z,53.92
2023-05-14T15:01:48.766Z,54.13
2023-05-14T15:02:48.685Z,54.25
2023-05-14T15:03:48.578Z,53.32
2023-05-14T15:04:48.565Z,52.51
2023-05-14T15:05:53.848Z,52.12
2023-05-14T15:06:48.526Z,52.51
2023-05-14T15:07:48.510Z,52.22
2023-05-14T15:08:48.499Z,52.19
2023-05-14T15:09:48.487Z,51.99
2023-05-14T15:10:48.486Z,51.09
2023-05-14T15:11:48.527Z,51.39
2023-05-14T15:12:48.460Z,51.29
2023-05-14T15:13:48.446Z,51.79
2023-05-14T15:14:48.440Z,52.19
2023-05-14T15:15:48.432Z,51.89
2023-05-14T15:16:53.472Z,52.19
2023-05-14T15:17:48.468Z,52.49
2023-05-14T15:18:48.505Z,51.09
2023-05-14T15:19:48.392Z,51.29
2023-05-14T15:20:48.410Z,52.19
2023-05-14T15:21:48.356Z,51.79
2023-05-14T15:22:48.347Z,51.79
2023-05-14T15:23:48.337Z,51.49
2023-05-14T15:24:48.418Z,51.29
2023-05-14T15:25:48.312Z,51.69
2023-05-14T15:26:48.311Z,51.19
2023-05-14T15:27:53.350Z,51.09
2023-05-14T15:28:48.286Z,51.79
2023-05-14T15:29:48.280Z,52.47
2023-05-14T15:30:48.312Z,52.37
2023-05-14T15:31:48.281Z,51.17
2023-05-14T15:32:48.296Z,51.67
2023-05-14T15:33:48.232Z,50.99
2023-05-14T15:34:48.217Z,52.67
2023-05-14T15:35:48.205Z,51.69
2023-05-14T15:36:48.228Z,52.17
2023-05-14T15:37:48.279Z,51.56
2023-05-14T15:38:53.204Z,51.56
2023-05-14T15:39:48.166Z,51.06
2023-05-14T15:40:48.156Z,50.26
2023-05-14T15:41:48.142Z,50.46
2023-05-14T15:42:48.123Z,50.16
2023-05-14T15:43:48.203Z,50.04
2023-05-14T15:44:48.105Z,50.16
2023-05-14T15:45:48.093Z,50.16
2023-05-14T15:46:48.156Z,50.06
2023-05-14T15:47:48.110Z,48.75
2023-05-14T15:48:48.067Z,48.46
2023-05-14T15:49:53.078Z,48.55
2023-05-14T15:50:49.483Z,49.23
2023-05-14T15:51:48.024Z,49.16
2023-05-14T15:52:48.043Z,48.93
2023-05-14T15:53:48.015Z,49.93
2023-05-14T15:54:47.997Z,49.26
2023-05-14T15:55:47.978Z,49.66
2023-05-14T15:56:48.009Z,50.46
2023-05-14T15:57:47.963Z,50.46
2023-05-14T15:58:47.942Z,50.29
2023-05-14T15:59:47.928Z,49.78
2023-05-14T16:00:52.943Z,50.48
2023-05-14T16:01:47.985Z,50.89
2023-05-14T16:02:48.075Z,50.48
2023-05-14T16:03:47.968Z,52.59
2023-05-14T16:04:47.880Z,52.42
2023-05-14T16:05:47.863Z,52.92
2023-05-14T16:06:47.860Z,52.92
2023-05-14T16:07:47.858Z,52.29
2023-05-14T16:08:47.940Z,53.22
2023-05-14T16:09:47.848Z,53.70
2023-05-14T16:10:47.810Z,53.22
2023-05-14T16:11:52.831Z,53.82
2023-05-14T16:12:47.796Z,54.10
2023-05-14T16:13:47.775Z,53.80
2023-05-14T16:14:47.827Z,54.20
2023-05-14T16:15:47.762Z,54.53
2023-05-14T16:16:47.820Z,53.30
2023-05-14T16:17:47.751Z,53.59
2023-05-14T16:18:47.735Z,53.39
2023-05-14T16:19:47.733Z,53.20
2023-05-14T16:20:47.756Z,53.30
2023-05-14T16:21:47.689Z,53.09
2023-05-14T16:22:52.698Z,52.49
2023-05-14T16:23:47.678Z,52.29
2023-05-14T16:24:47.684Z,52.37
2023-05-14T16:25:47.650Z,52.77
2023-05-14T16:26:47.636Z,52.87
2023-05-14T16:27:47.724Z,51.76
2023-05-14T16:28:47.613Z,52.07
2023-05-14T16:29:47.622Z,51.76
2023-05-14T16:30:47.587Z,51.97
2023-05-14T16:31:47.603Z,51.99
2023-05-14T16:32:47.598Z,52.69
2023-05-14T16:33:52.740Z,53.39
2023-05-14T16:34:47.557Z,53.09
2023-05-14T16:35:47.531Z,52.92
2023-05-14T16:36:47.531Z,52.82
2023-05-14T16:37:47.519Z,53.12
2023-05-14T16:39:05.171Z,53.52
2023-05-14T16:39:47.494Z,53.52
2023-05-14T16:40:47.557Z,53.32
2023-05-14T16:41:47.458Z,53.52
2023-05-14T16:42:49.267Z,52.32
2023-05-14T16:43:47.440Z,52.84
2023-05-14T16:44:52.451Z,52.34
2023-05-14T16:45:47.512Z,52.94
2023-05-14T16:46:47.399Z,53.14
2023-05-14T16:47:47.529Z,52.44
2023-05-14T16:48:47.384Z,52.94
2023-05-14T16:49:47.361Z,53.14
2023-05-14T16:50:47.349Z,53.05
2023-05-14T16:51:47.348Z,53.55
2023-05-14T16:52:47.338Z,53.34
2023-05-14T16:53:47.429Z,53.05
2023-05-14T16:54:47.306Z,52.72
2023-05-14T16:55:52.336Z,53.02
2023-05-14T16:56:47.349Z,53.42
2023-05-14T16:57:47.283Z,53.05
2023-05-14T16:58:47.279Z,53.95
2023-05-14T16:59:47.355Z,52.42
2023-05-14T17:00:47.234Z,52.42
2023-05-14T17:01:47.262Z,52.42
2023-05-14T17:02:47.253Z,53.02
2023-05-14T17:03:47.204Z,53.14
2023-05-14T17:04:47.207Z,52.55
2023-05-14T17:05:47.282Z,52.64
2023-05-14T17:06:52.188Z,52.44
2023-05-14T17:07:47.192Z,52.84
2023-05-14T17:08:47.155Z,52.44
2023-05-14T17:09:47.177Z,52.44
2023-05-14T17:10:47.134Z,52.14
2023-05-14T17:11:47.186Z,52.55
2023-05-14T17:12:47.132Z,52.14
2023-05-14T17:13:47.089Z,52.34
2023-05-14T17:14:47.079Z,52.24
2023-05-14T17:15:47.084Z,52.14
2023-05-14T17:16:47.065Z,52.84
2023-05-14T17:17:52.197Z,52.44
2023-05-14T17:18:47.188Z,52.44
2023-05-14T17:19:47.024Z,52.24
2023-05-14T17:20:47.021Z,52.84
2023-05-14T17:21:47.015Z,52.34
2023-05-14T17:22:47.000Z,52.84
2023-05-14T17:23:46.989Z,52.55
2023-05-14T17:24:46.995Z,52.84
2023-05-14T17:25:46.957Z,52.64
2023-05-14T17:26:46.952Z,52.84
2023-05-14T17:27:46.958Z,52.44
2023-05-14T17:28:51.942Z,52.55
2023-05-14T17:29:46.908Z,52.94
2023-05-14T17:30:46.901Z,52.34
2023-05-14T17:31:46.994Z,52.34
2023-05-14T17:32:48.499Z,52.84
2023-05-14T17:33:46.861Z,53.05
2023-05-14T17:34:46.849Z,52.84
2023-05-14T17:35:46.852Z,52.94
2023-05-14T17:36:46.841Z,52.84
2023-05-14T17:37:46.817Z,52.64
2023-05-14T17:38:46.832Z,52.55
2023-05-14T17:39:51.831Z,52.64
2023-05-14T17:40:46.805Z,52.34
2023-05-14T17:41:46.782Z,53.25
2023-05-14T17:42:46.761Z,52.94
2023-05-14T17:43:46.787Z,52.34
2023-05-14T17:44:46.758Z,52.74
2023-05-14T17:46:46.814Z,52.55
2023-05-14T17:47:46.745Z,52.84
2023-05-14T17:48:46.699Z,52.24
2023-05-14T17:49:46.697Z,52.44
2023-05-14T17:50:51.881Z,52.24
2023-05-14T17:51:46.664Z,52.04
2023-05-14T17:52:46.657Z,52.94
2023-05-14T17:53:46.706Z,52.64